Adkins, Texas
Current Conditions -  °F | °C
As of 5:58 AM on Friday 31 Oct 2014 (Local Time) from KRND Reporting Station
Overcast Overcast  
Wind Chill: 64°   Ceiling: 4800
Heat Index: 64°   Visibility: 10mi
Dew Point: 60°   Wind: 7mph
Humidity: 85%   Direction: 50°NE
Pressure: 30.17"   Gusts: NA
Location:  29.39°N, 98.24°W
Report Text: KRND 311058Z AUTO 05006KT 10SM OVC048 18/16 A3017 RMK AO2 RAE1020DZB1020E1024 TSB0958E1020 SLP210 P0000 T01800155
Loading
Personal Weather Stations






























Interactive Weather Map
Tropical Storm Tracking
New forecast layout! Learn more

10-Day Weather Forecast

Advertisements
Track Severe Weather on mobile